createdAt,value
2024-04-23T00:02:13.199Z,5.40
2024-04-23T00:04:39.897Z,6.40
2024-04-23T00:07:06.535Z,6.60
2024-04-23T00:09:33.211Z,7.00
2024-04-23T00:11:59.796Z,6.20
2024-04-23T00:14:26.388Z,7.10
2024-04-23T00:17:05.170Z,4.80
2024-04-23T00:19:32.314Z,7.10
2024-04-23T00:21:59.027Z,6.50
2024-04-23T00:24:25.950Z,5.70
2024-04-23T00:27:00.430Z,6.00
2024-04-23T00:29:28.564Z,7.30
2024-04-23T00:31:55.668Z,6.90
2024-04-23T00:34:22.765Z,7.40
2024-04-23T00:36:57.825Z,6.60
2024-04-23T00:39:24.964Z,6.90
2024-04-23T00:41:53.853Z,6.10
2024-04-23T00:44:20.588Z,7.90
2024-04-23T00:46:47.829Z,7.30
2024-04-23T00:49:15.228Z,7.40
2024-04-23T00:51:44.712Z,7.80
2024-04-23T00:54:11.537Z,7.20
2024-04-23T00:56:38.708Z,7.00
2024-04-23T00:59:07.183Z,7.60
2024-04-23T01:01:37.105Z,7.60
2024-04-23T01:04:06.533Z,8.00
2024-04-23T01:06:33.659Z,7.40
2024-04-23T01:09:00.439Z,7.40
2024-04-23T01:11:27.473Z,7.60
2024-04-23T01:13:54.231Z,7.60
2024-04-23T01:16:23.468Z,8.20
2024-04-23T01:18:51.093Z,7.50
2024-04-23T01:21:19.911Z,7.40
2024-04-23T01:23:53.395Z,7.60
2024-04-23T01:26:21.070Z,7.00
2024-04-23T01:28:47.961Z,6.80
2024-04-23T01:31:15.543Z,7.60
2024-04-23T01:33:43.066Z,7.00
2024-04-23T01:36:10.476Z,6.80
2024-04-23T01:38:37.991Z,6.20
2024-04-23T01:41:05.911Z,5.50
2024-04-23T01:43:33.095Z,6.50
2024-04-23T01:46:00.821Z,6.30
2024-04-23T01:48:27.587Z,6.40
2024-04-23T01:50:54.480Z,6.90
2024-04-23T01:53:21.068Z,7.30
2024-04-23T01:55:50.208Z,7.30
2024-04-23T02:00:45.907Z,7.80
2024-04-23T02:03:14.152Z,7.70
2024-04-23T02:05:41.543Z,8.30
2024-04-23T02:08:08.444Z,7.80
2024-04-23T02:10:38.924Z,8.10
2024-04-23T02:13:06.191Z,8.00
2024-04-23T02:15:32.780Z,8.00
2024-04-23T02:17:59.524Z,8.20
2024-04-23T02:20:26.267Z,8.40
2024-04-23T02:22:53.008Z,8.90
2024-04-23T02:25:23.389Z,8.50
2024-04-23T02:27:50.659Z,9.20
2024-04-23T02:30:17.363Z,8.90
2024-04-23T02:32:44.216Z,10.00
2024-04-23T02:35:10.948Z,9.90
2024-04-23T02:37:37.648Z,9.20
2024-04-23T02:40:06.831Z,9.50
2024-04-23T02:42:33.836Z,9.30
2024-04-23T02:45:00.468Z,9.40
2024-04-23T02:47:27.233Z,8.60
2024-04-23T02:49:54.010Z,9.30
2024-04-23T02:52:20.639Z,8.70
2024-04-23T02:54:47.254Z,9.30
2024-04-23T02:57:13.918Z,9.90
2024-04-23T02:59:40.517Z,9.30
2024-04-23T03:02:08.824Z,9.60
2024-04-23T03:04:35.583Z,9.40
2024-04-23T03:07:02.816Z,8.90
2024-04-23T03:09:29.444Z,9.40
2024-04-23T03:11:56.586Z,9.00
2024-04-23T03:14:23.203Z,9.50
2024-04-23T03:16:49.853Z,9.30
2024-04-23T03:19:16.547Z,9.00
2024-04-23T03:21:57.203Z,8.90
2024-04-23T03:24:27.260Z,8.50
2024-04-23T03:26:53.882Z,9.20
2024-04-23T03:29:20.882Z,9.90
2024-04-23T03:31:48.246Z,9.70
2024-04-23T03:34:14.986Z,10.00
2024-04-23T03:36:41.632Z,9.20
2024-04-23T03:39:08.252Z,9.70
2024-04-23T03:41:34.890Z,9.20
2024-04-23T03:44:01.639Z,9.50
2024-04-23T03:46:28.506Z,9.40
2024-04-23T03:48:55.151Z,9.60
2024-04-23T03:51:21.763Z,10.10
2024-04-23T03:53:48.344Z,9.00
2024-04-23T03:56:14.939Z,9.70
2024-04-23T03:58:41.589Z,8.40
2024-04-23T04:01:08.280Z,9.60
2024-04-23T04:03:55.424Z,9.70
2024-04-23T04:06:22.009Z,9.70
2024-04-23T04:08:48.630Z,9.70
2024-04-23T04:11:15.278Z,9.90
2024-04-23T04:13:42.916Z,8.90
2024-04-23T04:16:09.794Z,9.50
2024-04-23T04:18:39.035Z,9.60
2024-04-23T04:21:06.507Z,9.10
2024-04-23T04:23:33.330Z,9.90
2024-04-23T04:26:00.179Z,10.30
2024-04-23T04:28:27.209Z,9.90
2024-04-23T04:30:53.843Z,9.10
2024-04-23T04:33:20.569Z,10.00
2024-04-23T04:35:47.402Z,8.80
2024-04-23T04:38:14.263Z,10.00
2024-04-23T04:40:41.759Z,9.10
2024-04-23T04:43:08.563Z,8.60
2024-04-23T04:45:35.420Z,9.50
2024-04-23T04:48:02.305Z,9.90
2024-04-23T04:50:29.162Z,9.60
2024-04-23T04:52:55.842Z,10.20
2024-04-23T04:55:25.478Z,10.80
2024-04-23T04:57:53.072Z,9.80
2024-04-23T05:00:19.751Z,10.30
2024-04-23T05:02:46.746Z,9.60
2024-04-23T05:05:13.602Z,9.70
2024-04-23T05:07:40.447Z,9.60
2024-04-23T05:10:08.512Z,9.90
2024-04-23T05:12:38.554Z,9.90
2024-04-23T05:15:06.335Z,10.20
2024-04-23T05:17:33.170Z,9.50
2024-04-23T05:20:00.792Z,10.10
2024-04-23T05:22:28.731Z,9.00
2024-04-23T05:24:55.612Z,8.80
2024-04-23T05:27:22.287Z,8.80
2024-04-23T05:29:55.094Z,9.00
2024-04-23T05:32:44.619Z,8.40
2024-04-23T05:35:13.872Z,9.10
2024-04-23T05:37:41.217Z,9.80
2024-04-23T05:40:08.948Z,9.80
2024-04-23T05:42:35.760Z,10.20
2024-04-23T05:45:02.908Z,10.00
2024-04-23T05:47:29.863Z,9.20
2024-04-23T05:50:34.383Z,9.90
2024-04-23T05:53:58.871Z,10.20
2024-04-23T05:56:44.454Z,10.50
2024-04-23T05:59:11.224Z,10.40
2024-04-23T06:01:37.980Z,9.10
2024-04-23T06:04:04.745Z,8.20
2024-04-23T06:06:31.439Z,8.30
2024-04-23T06:08:58.161Z,8.90
2024-04-23T06:11:24.943Z,9.10
2024-04-23T06:14:06.310Z,8.90
2024-04-23T06:16:33.042Z,7.20
2024-04-23T06:18:59.937Z,7.60
2024-04-23T06:21:26.810Z,7.30
2024-04-23T06:23:53.554Z,7.70
2024-04-23T06:26:20.282Z,7.30
2024-04-23T06:28:47.020Z,7.60
2024-04-23T06:31:14.176Z,8.10
2024-04-23T06:33:41.038Z,8.00
2024-04-23T06:36:09.602Z,8.20
2024-04-23T06:38:36.333Z,7.50
2024-04-23T06:41:03.131Z,6.80
2024-04-23T06:43:30.050Z,7.50
2024-04-23T06:45:58.588Z,8.40
2024-04-23T06:48:25.370Z,7.40
2024-04-23T06:50:52.001Z,7.90
2024-04-23T06:53:18.865Z,9.10
2024-04-23T06:55:45.600Z,9.40
2024-04-23T06:58:12.311Z,10.00
2024-04-23T07:00:39.060Z,8.80
2024-04-23T07:03:06.662Z,9.10
2024-04-23T07:05:33.342Z,7.50
2024-04-23T07:08:00.023Z,7.90
2024-04-23T07:10:26.826Z,8.10
2024-04-23T07:12:54.896Z,8.00
2024-04-23T07:15:23.175Z,7.40
2024-04-23T07:17:50.536Z,7.90
2024-04-23T07:20:17.632Z,7.00
2024-04-23T07:22:44.438Z,7.40
2024-04-23T07:25:11.255Z,7.60
2024-04-23T07:27:37.825Z,8.60
2024-04-23T07:30:05.579Z,7.50
2024-04-23T07:32:32.453Z,6.90
2024-04-23T07:34:59.416Z,6.90
2024-04-23T07:37:26.177Z,7.20
2024-04-23T07:39:52.830Z,6.90
2024-04-23T07:42:19.420Z,7.10
2024-04-23T07:44:46.430Z,6.00
2024-04-23T07:47:13.649Z,7.30
2024-04-23T07:49:41.271Z,5.40
2024-04-23T07:52:08.085Z,5.80
2024-04-23T07:54:34.803Z,6.40
2024-04-23T07:57:01.631Z,5.20
2024-04-23T07:59:28.388Z,5.50
2024-04-23T08:01:55.164Z,5.40
2024-04-23T08:04:21.959Z,6.00
2024-04-23T08:06:48.690Z,5.60
2024-04-23T08:09:15.309Z,6.40
2024-04-23T08:11:42.772Z,6.50
2024-04-23T08:14:09.613Z,6.00
2024-04-23T08:16:36.607Z,5.40
2024-04-23T08:19:03.514Z,5.10
2024-04-23T08:21:30.772Z,4.80
2024-04-23T08:23:58.578Z,5.30
2024-04-23T08:26:26.102Z,5.80
2024-04-23T08:28:54.442Z,6.40
2024-04-23T08:31:21.721Z,2.90
2024-04-23T08:33:48.377Z,2.80
2024-04-23T08:36:15.108Z,2.60
2024-04-23T08:38:41.950Z,2.60
2024-04-23T08:41:15.882Z,1.50
2024-04-23T08:43:53.446Z,1.70
2024-04-23T08:46:20.287Z,1.30
2024-04-23T08:48:47.384Z,1.20
2024-04-23T08:51:14.203Z,1.40
2024-04-23T08:53:41.262Z,1.70
2024-04-23T08:56:13.243Z,1.40
2024-04-23T08:58:42.345Z,0.70
2024-04-23T09:03:40.633Z,0.50
2024-04-23T09:06:07.666Z,0.40
2024-04-23T09:08:34.573Z,0.60
2024-04-23T09:11:01.886Z,0.60
2024-04-23T09:13:29.595Z,0.60
2024-04-23T09:15:58.699Z,0.60
2024-04-23T09:20:52.617Z,0.50
2024-04-23T09:23:19.204Z,0.50
2024-04-23T09:25:48.075Z,0.50
2024-04-23T09:30:52.446Z,0.50
2024-04-23T09:33:30.416Z,0.60
2024-04-23T09:36:24.006Z,0.70
2024-04-23T09:38:55.211Z,0.60
2024-04-23T09:41:22.987Z,0.60
2024-04-23T09:43:55.309Z,0.90
2024-04-23T09:46:23.797Z,0.80
2024-04-23T09:48:54.077Z,0.60
2024-04-23T09:51:21.761Z,0.80
2024-04-23T09:53:49.134Z,0.60
2024-04-23T09:56:20.152Z,0.60
2024-04-23T09:58:48.051Z,0.60
2024-04-23T10:01:16.956Z,0.40
2024-04-23T10:03:45.549Z,0.40
2024-04-23T10:06:24.619Z,0.50
2024-04-23T10:09:03.836Z,0.50
2024-04-23T10:11:38.094Z,0.40
2024-04-23T10:14:23.871Z,0.40
2024-04-23T10:17:12.413Z,0.40
2024-04-23T10:19:39.588Z,0.30
2024-04-23T10:22:06.801Z,0.20
2024-04-23T10:24:33.639Z,0.30
2024-04-23T10:27:01.720Z,0.20
2024-04-23T10:29:31.521Z,0.20
2024-04-23T10:31:58.176Z,0.30
2024-04-23T10:34:26.349Z,0.30
2024-04-23T10:36:54.442Z,0.30
2024-04-23T10:39:25.593Z,0.30
2024-04-23T10:41:53.759Z,0.30
2024-04-23T10:44:22.946Z,0.40
2024-04-23T10:46:50.109Z,0.50
2024-04-23T10:49:17.423Z,0.30
2024-04-23T10:51:45.712Z,0.20
2024-04-23T10:54:21.700Z,0.50
2024-04-23T10:57:11.150Z,0.30
2024-04-23T10:59:39.680Z,0.30
2024-04-23T11:02:08.393Z,0.20
2024-04-23T11:04:48.775Z,0.50
2024-04-23T11:07:27.058Z,0.30
2024-04-23T11:10:03.678Z,0.30
2024-04-23T11:12:33.339Z,0.40
2024-04-23T11:15:00.417Z,0.40
2024-04-23T11:17:29.435Z,0.30
2024-04-23T11:19:57.795Z,0.30
2024-04-23T11:22:34.756Z,0.40
2024-04-23T11:25:09.242Z,0.40
2024-04-23T11:27:36.031Z,0.40
2024-04-23T11:30:03.071Z,0.30
2024-04-23T11:32:30.823Z,0.40
2024-04-23T11:34:57.730Z,0.50
2024-04-23T11:37:30.073Z,0.40
2024-04-23T11:39:58.245Z,0.50
2024-04-23T11:42:34.270Z,0.60
2024-04-23T11:45:02.355Z,0.70
2024-04-23T11:47:30.207Z,0.80
2024-04-23T11:50:00.848Z,0.60
2024-04-23T11:52:29.309Z,0.50
2024-04-23T11:54:56.441Z,0.50
2024-04-23T11:57:23.621Z,0.70
2024-04-23T11:59:50.549Z,0.60
2024-04-23T12:02:17.501Z,0.60
2024-04-23T12:04:45.575Z,0.50
2024-04-23T12:07:13.743Z,0.40
2024-04-23T12:09:40.692Z,0.50
2024-04-23T12:12:08.148Z,0.50
2024-04-23T12:14:35.183Z,0.40
2024-04-23T12:17:02.934Z,0.50
2024-04-23T12:19:32.115Z,0.70
2024-04-23T12:22:00.537Z,0.70
2024-04-23T12:24:30.838Z,0.80
2024-04-23T12:26:59.643Z,0.80
2024-04-23T12:29:32.438Z,0.80
2024-04-23T12:32:02.673Z,1.00
2024-04-23T12:34:29.687Z,0.90
2024-04-23T12:36:56.568Z,1.30
2024-04-23T12:39:23.517Z,0.90
2024-04-23T12:41:53.516Z,1.10
2024-04-23T12:44:23.095Z,1.10
2024-04-23T12:46:49.867Z,1.40
2024-04-23T12:49:16.792Z,1.30
2024-04-23T12:51:43.770Z,1.30
2024-04-23T12:54:10.671Z,1.60
2024-04-23T12:56:37.512Z,1.60
2024-04-23T12:59:06.971Z,1.30
2024-04-23T13:01:41.987Z,1.20
2024-04-23T13:04:12.407Z,1.50
2024-04-23T13:06:39.378Z,1.90
2024-04-23T13:09:06.676Z,1.30
2024-04-23T13:11:33.787Z,1.30
2024-04-23T13:14:00.939Z,2.40
2024-04-23T13:16:39.069Z,1.40
2024-04-23T13:19:13.324Z,1.70
2024-04-23T13:21:40.134Z,1.70
2024-04-23T13:24:06.984Z,1.30
2024-04-23T13:26:33.732Z,1.90
2024-04-23T13:29:01.262Z,1.30
2024-04-23T13:31:28.145Z,1.30
2024-04-23T13:33:55.059Z,1.10
2024-04-23T13:36:24.579Z,1.20
2024-04-23T13:38:51.227Z,1.10
2024-04-23T13:41:20.872Z,1.40
2024-04-23T13:43:50.056Z,1.10
2024-04-23T13:46:16.955Z,0.80
2024-04-23T13:48:44.164Z,0.90
2024-04-23T13:51:11.422Z,0.90
2024-04-23T13:53:38.124Z,1.00
2024-04-23T13:56:07.086Z,0.90
2024-04-23T13:58:34.378Z,1.00
2024-04-23T14:01:10.716Z,0.90
2024-04-23T14:03:38.260Z,0.90
2024-04-23T14:06:05.844Z,1.30
2024-04-23T14:08:36.260Z,1.20
2024-04-23T14:11:04.176Z,1.30
2024-04-23T14:13:34.739Z,1.30
2024-04-23T14:16:11.691Z,1.30
2024-04-23T14:18:39.341Z,1.70
2024-04-23T14:21:06.047Z,1.50
2024-04-23T14:23:35.873Z,1.50
2024-04-23T14:26:03.224Z,1.50
2024-04-23T14:28:34.487Z,1.10
2024-04-23T14:31:04.161Z,1.10
2024-04-23T14:33:31.754Z,1.40
2024-04-23T14:36:05.926Z,1.10
2024-04-23T14:38:32.934Z,1.60
2024-04-23T14:41:00.078Z,1.50
2024-04-23T14:43:27.163Z,1.60
2024-04-23T14:45:54.416Z,1.60
2024-04-23T14:48:21.443Z,1.90
2024-04-23T14:50:51.069Z,1.60
2024-04-23T14:53:21.590Z,1.70
2024-04-23T14:55:58.316Z,1.80
2024-04-23T14:58:25.425Z,1.50
2024-04-23T15:00:52.562Z,4.30
2024-04-23T15:03:19.440Z,22.90
2024-04-23T15:05:46.207Z,5.20
2024-04-23T15:08:13.585Z,3.30
2024-04-23T15:10:47.080Z,2.30
2024-04-23T15:13:13.973Z,4.50
2024-04-23T15:15:41.295Z,3.70
2024-04-23T15:18:08.402Z,1.60
2024-04-23T15:20:43.801Z,1.60
2024-04-23T15:23:10.452Z,1.50
2024-04-23T15:25:37.437Z,1.80
2024-04-23T15:28:04.876Z,1.60
2024-04-23T15:30:31.579Z,1.90
2024-04-23T15:32:58.573Z,2.10
2024-04-23T15:35:25.664Z,2.00
2024-04-23T15:37:52.609Z,1.90
2024-04-23T15:40:19.554Z,2.10
2024-04-23T15:42:46.310Z,2.50
2024-04-23T15:45:14.677Z,2.90
2024-04-23T15:47:42.025Z,2.70
2024-04-23T15:50:09.011Z,3.20
2024-04-23T15:52:35.918Z,2.70
2024-04-23T15:55:02.589Z,2.50
2024-04-23T15:57:29.395Z,2.10
2024-04-23T15:59:56.138Z,2.50
2024-04-23T16:02:23.301Z,2.20
2024-04-23T16:04:50.161Z,2.30
2024-04-23T16:07:18.742Z,2.20
2024-04-23T16:09:45.554Z,3.10
2024-04-23T16:12:12.186Z,2.70
2024-04-23T16:14:39.052Z,2.60
2024-04-23T16:17:05.841Z,2.10
2024-04-23T16:19:32.717Z,1.90
2024-04-23T16:22:01.500Z,2.30
2024-04-23T16:24:28.242Z,2.60
2024-04-23T16:26:57.033Z,2.10
2024-04-23T16:29:24.899Z,2.40
2024-04-23T16:31:51.929Z,2.30
2024-04-23T16:34:18.899Z,2.20
2024-04-23T16:36:46.667Z,5.50
2024-04-23T16:39:14.939Z,3.00
2024-04-23T16:41:42.896Z,5.00
2024-04-23T16:44:09.704Z,2.80
2024-04-23T16:46:39.831Z,2.00
2024-04-23T16:49:06.628Z,11.20
2024-04-23T16:51:33.244Z,2.80
2024-04-23T16:54:03.916Z,2.90
2024-04-23T16:56:30.923Z,9.30
2024-04-23T16:58:57.555Z,6.80
2024-04-23T17:01:24.219Z,9.00
2024-04-23T17:03:51.033Z,10.70
2024-04-23T17:06:17.873Z,4.50
2024-04-23T17:08:45.020Z,3.60
2024-04-23T17:11:11.838Z,3.30
2024-04-23T17:13:38.871Z,3.00
2024-04-23T17:16:16.331Z,2.90
2024-04-23T17:18:43.689Z,3.20
2024-04-23T17:21:14.534Z,3.50
2024-04-23T17:23:41.538Z,3.90
2024-04-23T17:26:08.534Z,5.20
2024-04-23T17:28:35.255Z,4.00
2024-04-23T17:31:03.404Z,6.00
2024-04-23T17:33:32.648Z,5.10
2024-04-23T17:35:59.947Z,4.60
2024-04-23T17:38:27.158Z,5.90
2024-04-23T17:40:56.918Z,5.70
2024-04-23T17:43:23.648Z,4.30
2024-04-23T17:45:50.923Z,4.10
2024-04-23T17:48:17.930Z,4.20
2024-04-23T17:50:44.791Z,4.80
2024-04-23T17:53:11.420Z,6.60
2024-04-23T17:55:38.574Z,4.60
2024-04-23T17:58:05.450Z,4.10
2024-04-23T18:00:32.184Z,4.60
2024-04-23T18:02:58.883Z,4.00
2024-04-23T18:05:25.669Z,11.30
2024-04-23T18:07:52.498Z,7.90
2024-04-23T18:10:19.320Z,6.00
2024-04-23T18:12:47.160Z,4.50
2024-04-23T18:15:13.987Z,4.80
2024-04-23T18:17:40.890Z,4.80
2024-04-23T18:20:08.569Z,4.60
2024-04-23T18:22:37.130Z,4.70
2024-04-23T18:25:04.504Z,5.70
2024-04-23T18:27:34.315Z,5.20
2024-04-23T18:30:01.025Z,4.20
2024-04-23T18:32:28.800Z,4.80
2024-04-23T18:34:55.591Z,4.10
2024-04-23T18:37:22.377Z,3.80
2024-04-23T18:39:49.187Z,3.60
2024-04-23T18:42:15.973Z,3.50
2024-04-23T18:44:42.800Z,2.80
2024-04-23T18:47:09.463Z,2.00
2024-04-23T18:49:36.273Z,2.30
2024-04-23T18:52:03.262Z,1.90
2024-04-23T18:54:30.074Z,2.30
2024-04-23T18:56:56.899Z,2.30
2024-04-23T18:59:24.406Z,2.50
2024-04-23T19:01:51.349Z,1.80
2024-04-23T19:04:18.071Z,1.90
2024-04-23T19:06:44.782Z,1.70
2024-04-23T19:09:11.417Z,1.90
2024-04-23T19:11:38.430Z,3.00
2024-04-23T19:14:14.354Z,2.50
2024-04-23T19:16:45.648Z,1.60
2024-04-23T19:19:12.895Z,1.80
2024-04-23T19:21:39.773Z,1.20
2024-04-23T19:24:07.983Z,1.50
2024-04-23T19:26:34.881Z,1.30
2024-04-23T19:29:01.951Z,1.40
2024-04-23T19:31:28.976Z,1.60
2024-04-23T19:33:55.731Z,2.20
2024-04-23T19:36:28.139Z,2.00
2024-04-23T19:38:54.840Z,3.00
2024-04-23T19:41:21.742Z,3.00
2024-04-23T19:43:52.903Z,2.50
2024-04-23T19:46:24.508Z,2.40
2024-04-23T19:48:52.336Z,1.60
2024-04-23T19:51:22.167Z,1.60
2024-04-23T19:53:49.892Z,1.50
2024-04-23T19:56:55.565Z,2.40
2024-04-23T19:59:22.565Z,1.30
2024-04-23T20:01:49.558Z,1.40
2024-04-23T20:04:19.351Z,2.50
2024-04-23T20:06:46.241Z,1.80
2024-04-23T20:09:15.141Z,1.80
2024-04-23T20:11:42.710Z,1.80
2024-04-23T20:14:09.541Z,4.80
2024-04-23T20:16:36.351Z,2.60
2024-04-23T20:19:03.094Z,2.20
2024-04-23T20:21:29.835Z,2.00
2024-04-23T20:23:56.721Z,1.50
2024-04-23T20:26:24.726Z,1.60
2024-04-23T20:28:53.102Z,1.60
2024-04-23T20:31:20.162Z,1.80
2024-04-23T20:33:48.600Z,2.70
2024-04-23T20:36:16.507Z,2.60
2024-04-23T20:38:43.583Z,3.70
2024-04-23T20:41:10.398Z,2.40
2024-04-23T20:43:37.843Z,2.30
2024-04-23T20:46:06.884Z,2.40
2024-04-23T20:51:01.916Z,4.00
2024-04-23T20:53:28.909Z,5.00
2024-04-23T20:55:55.692Z,3.70
2024-04-23T20:58:22.442Z,4.20
2024-04-23T21:00:49.983Z,2.60
2024-04-23T21:03:17.369Z,2.50
2024-04-23T21:05:46.728Z,3.00
2024-04-23T21:08:15.130Z,4.20
2024-04-23T21:10:41.921Z,15.20
2024-04-23T21:13:08.656Z,3.80
2024-04-23T21:15:35.744Z,23.90
2024-04-23T21:18:02.911Z,124.40
2024-04-23T21:20:29.888Z,57.10
2024-04-23T21:22:59.587Z,8.60
2024-04-23T21:25:26.910Z,2.90
2024-04-23T21:27:53.554Z,2.90
2024-04-23T21:30:20.180Z,2.30
2024-04-23T21:32:46.989Z,2.30
2024-04-23T21:35:13.815Z,2.20
2024-04-23T21:37:40.608Z,2.50
2024-04-23T21:40:08.227Z,2.30
2024-04-23T21:42:41.085Z,2.00
2024-04-23T21:45:09.153Z,2.70
2024-04-23T21:47:36.290Z,2.90
2024-04-23T21:50:03.518Z,3.40
2024-04-23T21:52:39.576Z,4.70
2024-04-23T21:55:09.438Z,4.60
2024-04-23T21:57:36.315Z,6.30
2024-04-23T22:00:03.855Z,7.20
2024-04-23T22:02:36.827Z,6.90
2024-04-23T22:05:06.719Z,5.60
2024-04-23T22:07:33.859Z,6.80
2024-04-23T22:10:00.512Z,8.40
2024-04-23T22:12:27.790Z,7.10
2024-04-23T22:14:54.428Z,7.90
2024-04-23T22:17:21.294Z,7.70
2024-04-23T22:19:48.157Z,8.20
2024-04-23T22:22:14.795Z,7.60
2024-04-23T22:24:42.905Z,7.40
2024-04-23T22:27:10.127Z,6.50
2024-04-23T22:29:36.767Z,7.30
2024-04-23T22:32:03.538Z,6.70
2024-04-23T22:34:30.363Z,7.40
2024-04-23T22:36:58.918Z,7.60
2024-04-23T22:39:25.530Z,7.40
2024-04-23T22:41:52.146Z,7.00
2024-04-23T22:44:18.902Z,7.60
2024-04-23T22:46:45.718Z,7.60
2024-04-23T22:49:13.222Z,8.40
2024-04-23T22:51:42.919Z,8.10
2024-04-23T22:54:09.538Z,9.10
2024-04-23T22:56:36.134Z,8.60
2024-04-23T22:59:02.743Z,8.90
2024-04-23T23:01:29.385Z,9.30
2024-04-23T23:03:56.090Z,9.80
2024-04-23T23:06:22.896Z,9.10
2024-04-23T23:08:49.535Z,8.50
2024-04-23T23:11:16.287Z,7.50
2024-04-23T23:13:42.944Z,7.40
2024-04-23T23:16:10.022Z,7.40
2024-04-23T23:18:36.754Z,7.80
2024-04-23T23:21:03.548Z,7.40
2024-04-23T23:23:30.251Z,7.90
2024-04-23T23:25:56.961Z,8.20
2024-04-23T23:28:23.573Z,7.80
2024-04-23T23:30:50.271Z,7.80
2024-04-23T23:33:16.982Z,7.60
2024-04-23T23:35:43.615Z,7.00
2024-04-23T23:38:10.272Z,6.60
2024-04-23T23:40:36.875Z,7.50
2024-04-23T23:43:03.771Z,6.20
2024-04-23T23:45:30.536Z,5.50
2024-04-23T23:47:57.320Z,6.00
2024-04-23T23:50:24.119Z,6.00
2024-04-23T23:52:50.752Z,4.30
2024-04-23T23:55:17.421Z,3.50
2024-04-23T23:57:44.059Z,3.50
